Time;durP1;ratioP1;P1;durP2;ratioP2;P2;SDS_P1;SDS_P2;PMS_P1;PMS_P2;Temp;Humidity;BMP_temperature;BMP_pressure;BME280_temperature;BME280_humidity;BME280_pressure;Samples;Min_cycle;Max_cycle;Signal;HPM_P1;HPM_P2
2023/10/13 00:01:11;;;;;;;7.90;7.13;;;;;;;14.64;74.87;95360.81;5091912;28;20433;-78
2023/10/13 00:03:39;;;;;;;10.30;8.20;;;;;;;14.60;75.41;95364.72;5092316;28;20511;-78
2023/10/13 00:06:08;;;;;;;10.77;7.77;;;;;;;14.60;75.11;95355.94;5092000;28;20576;-78
2023/10/13 00:08:36;;;;;;;13.17;7.40;;;;;;;14.60;75.35;95348.03;5092134;28;20440;-78
2023/10/13 00:11:05;;;;;;;7.73;6.97;;;;;;;14.55;75.57;95348.47;5092580;28;20856;-78
2023/10/13 00:13:40;;;;;;;8.60;7.37;;;;;;;14.55;75.42;95343.19;5092329;28;20420;-77
2023/10/13 00:16:09;;;;;;;7.57;6.77;;;;;;;14.57;75.33;95346.50;5074509;28;20440;-77
2023/10/13 00:18:41;;;;;;;8.13;7.17;;;;;;;14.53;75.02;95339.84;5057118;28;20481;-77
2023/10/13 00:21:13;;;;;;;8.50;7.10;;;;;;;14.53;75.39;95332.75;5091782;28;20440;-77
2023/10/13 00:23:43;;;;;;;13.73;8.00;;;;;;;14.50;74.98;95333.06;5056385;28;20442;-77
2023/10/13 00:26:18;;;;;;;8.43;7.63;;;;;;;14.53;74.95;95331.94;5091638;28;20472;-76
2023/10/13 00:28:46;;;;;;;7.60;6.90;;;;;;;14.55;75.43;95337.91;5092236;28;20450;-77
2023/10/13 00:31:14;;;;;;;10.80;7.40;;;;;;;14.56;75.42;95340.41;5091924;28;20439;-77
2023/10/13 00:33:42;;;;;;;11.13;6.90;;;;;;;14.44;75.32;95336.25;5092027;28;20447;-77
2023/10/13 00:36:16;;;;;;;12.33;7.90;;;;;;;14.48;75.64;95334.16;5094978;28;21048;-77
2023/10/13 00:38:47;;;;;;;9.30;7.50;;;;;;;14.50;75.45;95335.69;5095673;28;20480;-77
2023/10/13 00:41:17;;;;;;;9.57;6.80;;;;;;;14.50;75.11;95337.50;5095698;28;20519;-77
2023/10/13 00:44:03;;;;;;;10.77;6.83;;;;;;;14.51;75.45;95341.81;5095832;28;20485;-78
2023/10/13 00:46:34;;;;;;;9.87;7.03;;;;;;;14.54;75.24;95341.50;5095292;28;21011;-77
2023/10/13 00:49:02;;;;;;;9.70;6.70;;;;;;;14.51;75.10;95341.81;5095463;28;20444;-77
2023/10/13 00:51:34;;;;;;;11.43;6.97;;;;;;;14.51;75.05;95347.09;5095716;28;20439;-77
2023/10/13 00:54:11;;;;;;;7.90;7.20;;;;;;;14.52;74.92;95348.75;5095501;28;20439;-77
2023/10/13 00:56:46;;;;;;;15.37;7.03;;;;;;;14.41;74.82;95352.34;5095396;28;20572;-77
2023/10/13 00:59:14;;;;;;;11.33;8.83;;;;;;;14.24;75.19;95355.72;5095074;28;20471;-77
2023/10/13 01:01:42;;;;;;;8.20;7.30;;;;;;;14.07;75.66;95349.31;5094971;28;20469;-77
2023/10/13 01:04:12;;;;;;;12.17;6.40;;;;;;;13.86;76.16;95353.91;5095152;28;20456;-77
2023/10/13 01:06:38;;;;;;;7.50;6.70;;;;;;;13.68;77.35;95353.78;5094787;28;20573;-77
2023/10/13 01:09:14;;;;;;;10.43;7.03;;;;;;;13.61;77.83;95358.78;5094960;28;20494;-77
2023/10/13 01:11:43;;;;;;;12.80;7.63;;;;;;;13.56;78.13;95354.84;5094851;28;20478;-77
2023/10/13 01:14:11;;;;;;;10.40;7.63;;;;;;;13.57;78.06;95352.09;5094724;28;20453;-77
2023/10/13 01:16:40;;;;;;;12.20;7.20;;;;;;;13.58;78.55;95348.47;5076034;28;20438;-77
2023/10/13 01:19:07;;;;;;;14.73;8.87;;;;;;;13.59;78.25;95350.16;5094784;28;20442;-76
2023/10/13 01:21:33;;;;;;;7.70;6.83;;;;;;;13.62;78.09;95356.97;5094800;28;20437;-77
2023/10/13 01:24:07;;;;;;;8.93;7.20;;;;;;;13.63;78.23;95362.09;5075706;28;20529;-77
2023/10/13 01:26:38;;;;;;;10.80;7.77;;;;;;;13.64;77.89;95361.13;5094619;28;20528;-77
2023/10/13 01:29:11;;;;;;;10.33;7.63;;;;;;;13.66;77.89;95361.00;5094737;28;20456;-77
2023/10/13 01:31:45;;;;;;;10.03;7.37;;;;;;;13.67;77.65;95356.56;5094427;28;20440;-77
2023/10/13 01:34:14;;;;;;;9.20;8.20;;;;;;;13.64;77.72;95358.50;5061174;28;20449;-77
2023/10/13 01:36:41;;;;;;;20.63;8.43;;;;;;;13.64;77.87;95365.56;5094275;28;20497;-77
2023/10/13 01:39:16;;;;;;;11.57;7.50;;;;;;;13.66;78.28;95352.25;5094620;28;20446;-77
2023/10/13 01:41:42;;;;;;;12.30;7.20;;;;;;;13.61;78.49;95358.78;5094905;28;20499;-77
2023/10/13 01:44:11;;;;;;;14.80;7.30;;;;;;;13.60;78.62;95356.28;5094141;28;20896;-77
2023/10/13 01:46:37;;;;;;;11.57;7.10;;;;;;;13.59;79.04;95355.44;5058530;28;20484;-77
2023/10/13 01:49:04;;;;;;;11.20;7.97;;;;;;;13.53;79.50;95361.25;5094416;28;20442;-77
2023/10/13 01:51:30;;;;;;;10.40;7.50;;;;;;;13.54;79.33;95364.72;5094470;28;20236;-77
2023/10/13 01:53:57;;;;;;;7.93;7.13;;;;;;;13.53;79.01;95363.88;5075113;28;20480;-77
2023/10/13 01:56:29;;;;;;;7.70;6.60;;;;;;;13.50;79.27;95364.16;5094491;28;20215;-78
2023/10/13 01:58:56;;;;;;;10.17;6.73;;;;;;;13.37;79.52;95362.75;5094102;28;20889;-78
2023/10/13 02:01:27;;;;;;;12.10;7.93;;;;;;;13.36;79.27;95367.19;5094198;28;20827;-77
2023/10/13 02:04:02;;;;;;;13.43;8.17;;;;;;;13.36;79.38;95364.56;5093917;28;20478;-77
2023/10/13 02:06:32;;;;;;;8.33;7.33;;;;;;;13.36;79.54;95369.81;5093877;28;20482;-78
2023/10/13 02:09:05;;;;;;;9.33;7.40;;;;;;;13.35;79.30;95362.88;5094221;28;20541;-77
2023/10/13 02:11:33;;;;;;;11.73;8.07;;;;;;;13.33;79.48;95355.13;5093941;28;20527;-78
2023/10/13 02:14:00;;;;;;;11.37;8.13;;;;;;;13.29;79.68;95352.88;5093912;28;20916;-77
2023/10/13 02:16:27;;;;;;;8.37;6.90;;;;;;;13.26;79.64;95350.50;5093839;28;20442;-77
2023/10/13 02:18:53;;;;;;;7.93;7.13;;;;;;;13.25;79.12;95349.66;5058219;28;20443;-78
2023/10/13 02:21:20;;;;;;;14.60;7.80;;;;;;;13.25;79.40;95346.19;5093571;28;20438;-77
2023/10/13 02:23:46;;;;;;;9.50;7.93;;;;;;;13.26;79.43;95347.88;5093644;28;20672;-77
2023/10/13 02:26:15;;;;;;;8.60;7.70;;;;;;;13.27;79.60;95350.38;5093524;28;20546;-77
2023/10/13 02:28:44;;;;;;;8.97;7.03;;;;;;;13.30;79.64;95349.28;5093577;28;20442;-77
2023/10/13 02:31:11;;;;;;;7.83;7.03;;;;;;;13.29;79.63;95344.94;5093914;28;20458;-78
2023/10/13 02:33:44;;;;;;;8.70;7.80;;;;;;;13.34;79.63;95345.41;5093625;28;20853;-77
2023/10/13 02:36:12;;;;;;;10.53;7.70;;;;;;;13.37;79.25;95358.31;5093465;28;20477;-77
2023/10/13 02:38:45;;;;;;;8.70;7.27;;;;;;;13.39;79.18;95347.63;5093762;28;20468;-77
2023/10/13 02:41:18;;;;;;;9.80;6.87;;;;;;;13.38;78.97;95348.59;5093444;28;20476;-77
2023/10/13 02:43:45;;;;;;;10.20;8.63;;;;;;;13.13;78.70;95353.34;5093373;28;20490;-77
2023/10/13 02:46:15;;;;;;;11.87;8.10;;;;;;;13.03;78.54;95352.50;5093304;28;20443;-78
2023/10/13 02:48:42;;;;;;;13.77;8.50;;;;;;;12.85;79.26;95349.66;5093479;28;20532;-77
2023/10/13 02:51:16;;;;;;;12.83;8.53;;;;;;;12.70;80.05;95341.25;5093335;28;20847;-77
2023/10/13 02:53:46;;;;;;;12.17;7.93;;;;;;;12.74;80.47;95365.56;5093271;28;20432;-77
2023/10/13 02:56:13;;;;;;;10.20;8.53;;;;;;;12.68;80.55;95368.69;5093229;28;20936;-77
2023/10/13 02:58:43;;;;;;;12.47;8.47;;;;;;;12.66;80.63;95370.63;5092555;28;20521;-77
2023/10/13 03:01:17;;;;;;;18.00;8.50;;;;;;;12.62;81.03;95370.06;5093074;28;20509;-77
2023/10/13 03:03:50;;;;;;;12.03;8.77;;;;;;;12.64;81.60;95368.13;5093019;28;20446;-78
2023/10/13 03:06:21;;;;;;;9.60;7.90;;;;;;;12.61;81.80;95378.09;5092612;28;20957;-77
2023/10/13 03:08:47;;;;;;;10.57;9.10;;;;;;;12.63;82.17;95373.53;5093081;28;20509;-77
2023/10/13 03:11:14;;;;;;;12.83;8.90;;;;;;;12.65;81.66;95377.69;5073781;28;20939;-78
2023/10/13 03:13:44;;;;;;;12.60;8.23;;;;;;;12.69;81.34;95381.72;5093083;28;20444;-77
2023/10/13 03:16:19;;;;;;;12.53;8.57;;;;;;;12.69;80.99;95380.88;5092890;28;20447;-77
2023/10/13 03:18:53;;;;;;;14.80;9.43;;;;;;;12.64;81.02;95380.44;5092685;28;20539;-78
2023/10/13 03:21:29;;;;;;;12.30;9.13;;;;;;;12.52;80.87;95381.50;5092734;28;20792;-78
2023/10/13 03:24:06;;;;;;;13.87;10.37;;;;;;;12.47;81.01;95381.06;5092711;28;20441;-78
2023/10/13 03:26:37;;;;;;;11.27;8.47;;;;;;;12.39;80.79;95379.88;5092500;28;20852;-76
2023/10/13 03:29:07;;;;;;;13.67;10.20;;;;;;;12.37;81.77;95380.97;5092636;28;20456;-76
2023/10/13 03:31:37;;;;;;;12.10;7.80;;;;;;;12.39;82.03;95382.53;5092406;28;20482;-76
2023/10/13 03:34:11;;;;;;;10.00;8.70;;;;;;;12.41;81.77;95377.97;5092892;28;20540;-77
2023/10/13 03:36:57;;;;;;;14.97;8.50;;;;;;;12.48;81.45;95377.47;5092399;28;20480;-77
2023/10/13 03:39:28;;;;;;;13.83;8.80;;;;;;;12.50;81.81;95386.06;5092499;28;20854;-76
2023/10/13 03:41:56;;;;;;;12.07;7.23;;;;;;;12.52;83.03;95384.13;5092281;28;20436;-76
2023/10/13 03:44:23;;;;;;;11.17;8.03;;;;;;;12.51;82.33;95377.22;5092402;28;20441;-76
2023/10/13 03:46:54;;;;;;;8.20;7.33;;;;;;;12.47;82.35;95376.63;5092430;28;20488;-76
2023/10/13 03:49:21;;;;;;;10.77;7.83;;;;;;;12.39;82.65;95376.44;5092304;28;20519;-76
2023/10/13 03:51:49;;;;;;;11.47;7.60;;;;;;;12.39;82.68;95366.72;5092420;28;20723;-76
2023/10/13 03:54:17;;;;;;;10.33;7.60;;;;;;;12.38;84.03;95351.06;5092389;28;20446;-75
2023/10/13 03:56:45;;;;;;;16.10;7.90;;;;;;;12.40;83.71;95355.25;5092361;28;20517;-76
2023/10/13 03:59:18;;;;;;;8.20;7.03;;;;;;;12.43;83.73;95355.94;5057555;28;20473;-76
2023/10/13 04:01:48;;;;;;;8.17;7.37;;;;;;;12.46;83.67;95350.44;5092891;28;20459;-76
2023/10/13 04:04:33;;;;;;;12.00;7.40;;;;;;;12.48;83.88;95345.88;5092823;28;20449;-76
2023/10/13 04:07:13;;;;;;;7.47;6.60;;;;;;;12.52;84.61;95334.13;5092576;28;20480;-76
2023/10/13 04:10:10;;;;;;;11.30;7.23;;;;;;;12.57;83.31;95334.56;5095683;28;20489;-76
2023/10/13 04:15:27;;;;;;;10.53;7.53;;;;;;;12.61;83.89;95328.91;5096975;28;20562;-76
2023/10/13 04:17:54;;;;;;;17.93;9.50;;;;;;;12.49;82.87;95337.03;5062514;28;20472;-77
2023/10/13 04:26:21;;;;;;;20.50;9.80;;;;;;;14.33;100.00;95338.19;5013093;28;21059;-78
2023/10/13 04:28:53;;;;;;;11.63;8.40;;;;;;;15.28;83.96;95352.06;5013855;28;20489;-78
2023/10/13 04:31:46;;;;;;;14.50;8.77;;;;;;;16.09;75.57;95358.22;5013917;28;20446;-77
2023/10/13 04:34:19;;;;;;;13.80;7.90;;;;;;;16.47;72.32;95363.31;5013750;28;20541;-79
2023/10/13 04:36:55;;;;;;;10.60;8.80;;;;;;;17.03;71.18;95360.22;4968317;28;20803;-79
2023/10/13 04:39:29;;;;;;;8.80;7.50;;;;;;;17.16;66.99;95373.06;4935084;28;20951;-78
2023/10/13 04:42:10;;;;;;;23.10;11.37;;;;;;;16.68;66.74;95374.44;5013845;28;20449;-77
2023/10/13 04:44:48;;;;;;;19.00;10.53;;;;;;;16.11;67.21;95374.78;5014002;28;20451;-78
2023/10/13 04:47:22;;;;;;;19.20;13.13;;;;;;;15.40;69.28;95377.34;5013936;28;20489;-77
2023/10/13 04:49:52;;;;;;;65.20;25.40;;;;;;;15.03;86.75;95376.50;5013920;28;20875;-76
2023/10/13 04:55:48;;;;;;;48.27;9.87;;;;;;;15.17;73.21;95387.47;4929123;29;20483;-77
2023/10/13 04:58:45;;;;;;;29.63;10.10;;;;;;;14.91;72.67;95396.19;4917315;29;20976;-77
2023/10/13 05:01:49;;;;;;;22.07;11.33;;;;;;;14.69;73.31;95398.19;5007629;28;20471;-81
2023/10/13 05:04:22;;;;;;;16.00;9.57;;;;;;;14.54;73.71;95399.63;5014341;28;20438;-78
2023/10/13 05:45:39;;;;;;;12.27;7.17;;;;;;;21.81;61.74;95440.56;5032465;28;20438;-77
2023/10/13 05:48:12;;;;;;;13.03;7.57;;;;;;;21.40;57.77;95443.72;5032426;28;20878;-79
2023/10/13 05:51:32;;;;;;;6.93;6.10;;;;;;;21.10;56.95;95431.28;5032198;28;20483;-79
2023/10/13 06:29:27;;;;;;;11.17;7.00;;;;;;;21.26;55.68;95456.03;5031794;28;20515;-77
2023/10/13 06:31:57;;;;;;;13.13;6.40;;;;;;;21.32;53.81;95463.31;5031621;28;20452;-77
2023/10/13 06:34:37;;;;;;;7.43;5.90;;;;;;;21.30;53.29;95460.00;5093835;28;20850;-76
2023/10/13 06:37:21;;;;;;;10.70;6.13;;;;;;;21.18;53.36;95463.25;5094048;28;20515;-76
2023/10/13 06:39:48;;;;;;;7.30;6.27;;;;;;;21.13;53.75;95461.13;5094087;28;20442;-76
2023/10/13 06:42:16;;;;;;;13.23;7.77;;;;;;;21.09;55.52;95465.16;5093927;28;20449;-76
2023/10/13 06:44:45;;;;;;;10.53;8.63;;;;;;;21.04;55.34;95459.53;5093735;28;20439;-76
2023/10/13 06:47:14;;;;;;;14.03;8.90;;;;;;;20.77;57.11;95457.44;5093261;28;20485;-76
2023/10/13 06:49:43;;;;;;;19.60;9.20;;;;;;;20.55;57.64;95459.13;5093170;28;20529;-77
2023/10/13 06:52:10;;;;;;;14.30;10.50;;;;;;;20.34;58.98;95447.22;5093173;28;20438;-76
2023/10/13 06:54:38;;;;;;;19.73;9.77;;;;;;;20.40;58.65;95456.38;5092871;28;20994;-76
2023/10/13 06:57:06;;;;;;;21.90;10.13;;;;;;;20.13;59.19;95454.16;5093092;28;20444;-76
2023/10/13 06:59:36;;;;;;;19.40;9.47;;;;;;;20.24;59.06;95451.94;5093348;28;20471;-76
2023/10/13 07:02:06;;;;;;;16.47;9.80;;;;;;;20.30;58.11;95447.75;5092828;28;20787;-77
2023/10/13 07:04:34;;;;;;;16.20;9.63;;;;;;;20.25;58.52;95448.28;5092581;28;20927;-76
2023/10/13 07:07:03;;;;;;;27.90;11.10;;;;;;;20.31;58.66;95444.91;5092630;28;20449;-76
2023/10/13 07:09:49;;;;;;;17.03;9.57;;;;;;;20.43;58.42;95445.34;5092527;28;20472;-77
2023/10/13 07:12:22;;;;;;;21.87;10.80;;;;;;;20.35;58.79;95432.88;5092475;28;20447;-77
2023/10/13 07:14:53;;;;;;;16.83;9.70;;;;;;;20.46;58.16;95426.31;5092777;28;20441;-76
2023/10/13 07:17:24;;;;;;;18.10;10.70;;;;;;;20.63;57.02;95424.38;5092707;28;20528;-77
2023/10/13 07:20:06;;;;;;;27.33;9.30;;;;;;;20.85;56.80;95433.38;5092521;28;20445;-77
2023/10/13 07:22:39;;;;;;;13.97;10.77;;;;;;;20.76;55.53;95429.94;5092670;28;20450;-76
2023/10/13 07:25:07;;;;;;;14.97;10.03;;;;;;;20.55;56.76;95427.94;5092344;28;21034;-76
2023/10/13 07:27:35;;;;;;;18.00;10.10;;;;;;;20.51;56.25;95431.13;5092366;28;20545;-76
2023/10/13 07:30:13;;;;;;;10.93;8.87;;;;;;;20.35;56.97;95438.22;5092787;28;20523;-77
2023/10/13 07:32:44;;;;;;;16.30;10.53;;;;;;;20.16;57.33;95435.97;5092438;28;20444;-76
2023/10/13 07:35:15;;;;;;;20.60;10.60;;;;;;;20.02;58.97;95436.75;5092076;28;20483;-77
2023/10/13 07:37:42;;;;;;;21.60;12.10;;;;;;;20.12;59.18;95437.34;5092289;28;20535;-76
2023/10/13 07:40:22;;;;;;;17.17;8.37;;;;;;;20.26;58.06;95439.28;5056704;28;20432;-76
2023/10/13 07:42:49;;;;;;;20.37;10.67;;;;;;;20.24;57.82;95435.09;5092687;28;20445;-77
2023/10/13 07:45:24;;;;;;;21.30;10.23;;;;;;;20.42;59.13;95433.84;5091907;28;20847;-77
2023/10/13 07:47:51;;;;;;;15.83;9.97;;;;;;;20.67;57.14;95429.16;5092328;28;20487;-77
2023/10/13 07:50:25;;;;;;;11.47;8.80;;;;;;;20.84;56.00;95421.88;5092374;28;20449;-76
2023/10/13 07:52:58;;;;;;;18.10;9.10;;;;;;;20.89;55.45;95422.16;5058579;28;20492;-77
2023/10/13 07:55:25;;;;;;;12.90;9.00;;;;;;;20.94;55.46;95421.63;5092303;28;20447;-77
2023/10/13 07:57:56;;;;;;;11.00;8.03;;;;;;;21.05;55.94;95418.50;5092099;28;20450;-76
2023/10/13 08:00:46;;;;;;;13.13;9.20;;;;;;;20.91;55.42;95425.47;5092248;28;20449;-77
2023/10/13 08:03:31;;;;;;;12.20;8.83;;;;;;;20.77;56.44;95415.56;5092331;28;20926;-76
2023/10/13 08:06:04;;;;;;;14.73;8.77;;;;;;;20.76;58.22;95413.91;5092193;28;20531;-77
2023/10/13 08:08:37;;;;;;;12.53;9.87;;;;;;;20.79;58.09;95418.88;5056129;28;20482;-76
2023/10/13 08:11:11;;;;;;;21.73;11.33;;;;;;;20.67;58.16;95415.00;5092475;28;20445;-76
2023/10/13 08:13:40;;;;;;;15.87;9.10;;;;;;;20.80;58.34;95412.53;5092183;28;20475;-78
2023/10/13 08:16:09;;;;;;;23.10;10.90;;;;;;;20.78;57.30;95401.22;5092451;28;20460;-76
2023/10/13 08:18:36;;;;;;;25.50;10.80;;;;;;;20.84;57.38;95407.72;5092086;28;20437;-77
2023/10/13 08:21:05;;;;;;;22.07;11.23;;;;;;;20.93;56.60;95412.78;5092135;28;20470;-77
2023/10/13 08:23:57;;;;;;;12.77;10.40;;;;;;;21.10;57.72;95407.28;5092194;28;20438;-77
2023/10/13 08:26:30;;;;;;;20.30;9.37;;;;;;;21.22;56.31;95397.81;5056041;28;20523;-77
2023/10/13 08:28:57;;;;;;;30.23;11.57;;;;;;;21.27;56.25;95424.81;5092112;28;20479;-77
2023/10/13 08:31:25;;;;;;;45.33;11.53;;;;;;;21.31;55.81;95424.28;5091667;28;20916;-77
2023/10/13 08:34:05;;;;;;;20.40;9.73;;;;;;;21.41;56.25;95408.00;5091882;28;20511;-77
2023/10/13 08:36:37;;;;;;;14.67;10.30;;;;;;;21.49;55.54;95423.91;5091896;28;20482;-76
2023/10/13 08:39:57;;;;;;;18.23;10.07;;;;;;;21.40;55.34;95426.88;5091870;28;20437;-76
2023/10/13 08:42:11;;;;;;;23.40;13.40;;;;;;;21.28;55.89;95424.63;5091789;28;20534;-77
2023/10/13 08:44:40;;;;;;;31.03;12.90;;;;;;;21.35;56.64;95427.41;5073038;28;20436;-77
2023/10/13 08:47:16;;;;;;;18.93;11.60;;;;;;;21.47;56.46;95412.59;5091798;28;20437;-76
2023/10/13 08:49:50;;;;;;;28.03;12.77;;;;;;;21.29;55.23;95418.28;5091533;28;20571;-77
2023/10/13 08:52:45;;;;;;;35.43;13.07;;;;;;;21.35;55.47;95419.38;5091557;28;20444;-77
2023/10/13 08:55:37;;;;;;;25.33;11.67;;;;;;;21.27;56.38;95422.16;5091806;28;20451;-76
2023/10/13 08:58:12;;;;;;;16.27;12.23;;;;;;;21.32;56.64;95414.41;5095083;28;20453;-76
2023/10/13 09:06:06;;;;;;;20.63;11.70;;;;;;;21.18;56.83;95412.56;5052339;28;20431;-77
2023/10/13 09:08:44;;;;;;;17.37;11.63;;;;;;;21.21;56.35;95409.50;5052258;28;20512;-77
2023/10/13 09:11:12;;;;;;;24.83;13.00;;;;;;;21.23;55.12;95410.16;5052373;28;20541;-77
2023/10/13 09:13:43;;;;;;;22.93;12.10;;;;;;;21.43;55.20;95405.97;5052304;28;20443;-77
2023/10/13 09:16:17;;;;;;;20.33;12.37;;;;;;;21.63;55.21;95403.53;5052857;28;20502;-77
2023/10/13 09:18:46;;;;;;;24.70;13.30;;;;;;;21.80;54.63;95401.50;5053065;28;20961;-76
2023/10/13 09:21:47;;;;;;;24.60;12.37;;;;;;;21.82;53.65;95396.81;5052654;28;20983;-76
2023/10/13 09:24:21;;;;;;;27.40;10.90;;;;;;;21.81;54.92;95404.00;5053216;28;20444;-78
2023/10/13 09:26:50;;;;;;;21.37;13.43;;;;;;;22.03;53.17;95404.88;5053064;28;20444;-78
2023/10/13 09:29:18;;;;;;;19.77;13.23;;;;;;;22.20;52.75;95403.66;5052777;28;20523;-77
2023/10/13 09:31:47;;;;;;;23.33;13.70;;;;;;;;;;5053936;28;20450;-77
2023/10/13 09:34:20;;;;;;;27.13;12.87;;;;;;;22.46;52.78;95387.06;5053011;28;20447;-77
2023/10/13 09:36:55;;;;;;;18.47;11.97;;;;;;;22.53;51.70;95387.13;5018461;28;20924;-75
2023/10/13 09:39:34;;;;;;;28.27;13.00;;;;;;;22.55;51.44;95375.22;5032665;28;20875;-77
2023/10/13 09:42:01;;;;;;;24.00;12.50;;;;;;;22.55;53.36;95369.88;5002617;28;20553;-78
2023/10/13 09:44:30;;;;;;;28.30;13.87;;;;;;;22.60;53.02;95377.31;5074712;28;20496;-79
2023/10/13 09:47:07;;;;;;;26.77;12.03;;;;;;;22.72;53.02;95374.94;5075685;28;20495;-81
2023/10/13 09:49:47;;;;;;;22.97;11.67;;;;;;;22.75;51.90;95356.66;5074763;28;20481;-80
2023/10/13 09:52:19;;;;;;;22.30;12.30;;;;;;;22.91;52.20;95365.47;5075293;28;20447;-78
2023/10/13 09:55:02;;;;;;;23.40;13.00;;;;;;;23.03;53.58;95367.41;5074357;28;20482;-78
2023/10/13 09:57:40;;;;;;;25.23;13.40;;;;;;;23.20;51.68;95354.56;5074952;28;20518;-78
2023/10/13 10:00:29;;;;;;;19.40;14.20;;;;;;;23.24;50.59;95358.47;5074484;28;20460;-78
2023/10/13 10:03:04;;;;;;;20.03;12.07;;;;;;;23.19;50.31;95358.25;5074563;28;20474;-78
2023/10/13 10:05:34;;;;;;;21.17;13.20;;;;;;;23.08;49.14;95354.25;5041557;28;20451;-79
2023/10/13 10:08:01;;;;;;;18.10;11.87;;;;;;;23.07;49.39;95357.13;5055859;28;20797;-79
2023/10/13 10:10:47;;;;;;;17.10;12.07;;;;;;;23.15;50.55;95346.28;5074730;28;20825;-81
2023/10/13 10:13:21;;;;;;;33.10;12.83;;;;;;;23.23;51.35;95343.44;5092177;28;20442;-78
2023/10/13 10:15:52;;;;;;;17.53;11.03;;;;;;;23.32;49.39;95341.41;5059216;28;20445;-81
2023/10/13 10:18:21;;;;;;;31.33;13.43;;;;;;;23.44;47.78;95337.19;5094239;28;20446;-78
2023/10/13 10:20:51;;;;;;;16.83;11.20;;;;;;;23.50;46.87;95341.72;5094339;28;20447;-79
2023/10/13 10:23:30;;;;;;;17.80;10.80;;;;;;;23.56;47.12;95332.09;5094484;28;20925;-78
2023/10/13 10:26:08;;;;;;;12.63;9.20;;;;;;;23.62;46.94;95328.63;5094447;28;20535;-76
2023/10/13 10:28:38;;;;;;;14.60;9.20;;;;;;;23.71;47.49;95322.91;5094340;28;20484;-79
2023/10/13 10:31:09;;;;;;;17.77;10.40;;;;;;;23.81;46.18;95322.53;5059050;28;20443;-80
2023/10/13 10:33:36;;;;;;;11.67;9.03;;;;;;;23.89;46.18;95316.97;5094202;28;20869;-80
2023/10/13 10:36:05;;;;;;;13.17;8.47;;;;;;;23.99;44.93;95311.22;5074903;28;21016;-79
2023/10/13 10:38:34;;;;;;;12.30;8.97;;;;;;;24.10;44.29;95311.47;5093916;28;20455;-81
2023/10/13 10:41:04;;;;;;;7.73;5.90;;;;;;;24.23;40.74;95315.19;5059360;28;20513;-78
2023/10/13 10:43:42;;;;;;;8.40;5.17;;;;;;;24.25;39.89;95308.59;5093836;28;21129;-79
2023/10/13 10:46:10;;;;;;;12.33;6.90;;;;;;;24.35;42.68;95306.38;5093706;28;20766;-78
2023/10/13 10:48:42;;;;;;;14.40;5.87;;;;;;;24.46;40.78;95309.47;5093637;28;20500;-78
2023/10/13 10:51:21;;;;;;;13.00;6.50;;;;;;;24.54;40.78;95306.56;5094103;28;20444;-78
2023/10/13 10:53:49;;;;;;;9.33;5.50;;;;;;;24.53;39.13;95305.75;5093671;28;20470;-78
2023/10/13 10:56:24;;;;;;;8.00;4.93;;;;;;;24.53;40.33;95307.59;5058458;28;20440;-78
2023/10/13 10:58:54;;;;;;;8.90;5.63;;;;;;;24.49;40.39;95304.50;5093722;28;20553;-78
2023/10/13 11:01:21;;;;;;;12.17;7.10;;;;;;;24.52;40.19;95301.41;5093664;28;20790;-78
2023/10/13 11:03:57;;;;;;;6.37;5.70;;;;;;;24.52;40.40;95298.72;5093821;28;20444;-79
2023/10/13 11:06:26;;;;;;;17.73;5.83;;;;;;;24.55;40.54;95297.50;5093725;28;20451;-78
2023/10/13 11:09:03;;;;;;;8.03;6.33;;;;;;;24.57;41.29;95292.75;5093154;28;20823;-78
2023/10/13 11:11:35;;;;;;;7.20;6.03;;;;;;;24.57;40.28;95295.44;5092475;28;20481;-78
2023/10/13 11:14:17;;;;;;;8.07;5.43;;;;;;;24.53;41.13;95286.16;5092927;28;20443;-78
2023/10/13 11:16:50;;;;;;;8.30;5.63;;;;;;;24.52;40.58;95285.31;5093727;28;20526;-78
2023/10/13 11:19:25;;;;;;;8.43;5.53;;;;;;;24.54;40.42;95288.63;5092758;28;20475;-78
2023/10/13 11:21:54;;;;;;;9.80;4.73;;;;;;;24.62;39.83;95284.94;5093477;28;20436;-78
2023/10/13 11:24:21;;;;;;;10.07;5.73;;;;;;;24.65;39.78;95285.34;5093022;28;20440;-78
2023/10/13 11:26:50;;;;;;;8.50;4.97;;;;;;;24.69;39.31;95283.88;5093382;28;20527;-78
2023/10/13 11:29:19;;;;;;;7.20;4.73;;;;;;;24.75;38.73;95278.72;5092877;28;20480;-78
2023/10/13 11:31:54;;;;;;;12.83;5.53;;;;;;;24.86;40.01;95272.69;5093237;28;20444;-78
2023/10/13 11:34:21;;;;;;;7.27;5.23;;;;;;;24.98;39.81;95262.97;5093221;28;20839;-78
2023/10/13 11:36:48;;;;;;;8.53;5.20;;;;;;;25.05;38.64;95266.50;5092969;28;20439;-78
2023/10/13 11:39:22;;;;;;;11.13;4.47;;;;;;;25.06;37.97;95276.22;5092838;28;20448;-78
2023/10/13 11:41:54;;;;;;;10.23;4.90;;;;;;;25.05;37.02;95271.03;5093046;28;20501;-78
2023/10/13 11:44:30;;;;;;;6.30;5.13;;;;;;;25.07;37.17;95255.53;5056985;28;20463;-78
2023/10/13 11:47:07;;;;;;;4.17;3.77;;;;;;;25.05;37.89;95254.94;5093159;28;20438;-78
2023/10/13 11:49:37;;;;;;;9.53;3.90;;;;;;;25.06;37.89;95252.03;5092595;28;20483;-78
2023/10/13 11:52:16;;;;;;;9.63;4.03;;;;;;;25.12;38.14;95253.06;5093075;28;20440;-78
2023/10/13 11:54:44;;;;;;;11.20;4.33;;;;;;;25.22;37.61;95248.91;5075876;28;20478;-78
2023/10/13 11:57:12;;;;;;;7.70;5.00;;;;;;;25.23;37.82;95253.25;5092928;28;20866;-79
2023/10/13 11:59:52;;;;;;;8.17;4.80;;;;;;;25.24;37.42;95251.38;5092663;28;20933;-79
2023/10/13 12:05:11;;;;;;;13.93;4.53;;;;;;;25.12;36.86;95245.81;5092676;28;20422;-78
2023/10/13 12:07:51;;;;;;;4.20;3.30;;;;;;;25.18;38.07;95242.31;5053152;28;20520;-78
2023/10/13 12:10:38;;;;;;;11.70;3.97;;;;;;;25.19;37.58;95232.38;5072242;28;20480;-78
2023/10/13 12:13:08;;;;;;;7.90;5.10;;;;;;;25.25;37.50;95229.66;5072460;28;20448;-78
2023/10/13 12:15:48;;;;;;;5.30;4.20;;;;;;;25.25;36.73;95223.47;5072151;28;20791;-78
2023/10/13 12:18:16;;;;;;;6.33;4.47;;;;;;;25.33;37.84;95225.91;5040935;28;20948;-78
2023/10/13 12:20:45;;;;;;;6.43;4.47;;;;;;;25.33;38.04;95224.06;5072583;28;20445;-78
2023/10/13 12:23:17;;;;;;;4.53;4.10;;;;;;;25.37;36.95;95229.00;5072455;28;20436;-78
2023/10/13 12:28:31;;;;;;;5.50;3.87;;;;;;;25.44;37.01;95221.72;5090882;28;20945;-78
2023/10/13 12:31:07;;;;;;;7.40;4.50;;;;;;;25.35;37.39;95223.00;5057633;28;20909;-78
2023/10/13 12:33:37;;;;;;;10.77;4.87;;;;;;;25.34;37.66;95227.56;5093777;28;20431;-80
2023/10/13 12:36:09;;;;;;;9.00;3.70;;;;;;;25.27;36.61;95222.22;5095710;28;20467;-78
2023/10/13 12:48:55;;;;;;;5.20;3.97;;;;;;;25.22;36.59;95216.66;5062372;28;20942;-77
2023/10/13 12:49:59;;;;;;;7.10;4.10;;;;;;;25.32;37.83;95214.34;5096326;28;20482;-79
2023/10/13 12:52:26;;;;;;;6.73;3.83;;;;;;;25.38;36.40;95218.03;5096239;28;20458;-80
2023/10/13 12:55:06;;;;;;;6.60;4.10;;;;;;;25.40;36.55;95215.13;5060141;28;20428;-80
2023/10/13 12:57:33;;;;;;;6.57;4.07;;;;;;;25.36;36.36;95209.38;5093485;28;20443;-78
2023/10/13 13:00:16;;;;;;;7.20;4.20;;;;;;;25.39;36.74;95211.63;5095428;28;20428;-78
2023/10/13 13:02:43;;;;;;;4.93;3.90;;;;;;;25.41;36.81;95212.22;5095183;28;20505;-78
2023/10/13 13:05:12;;;;;;;13.53;4.20;;;;;;;25.40;36.66;95215.13;5095103;28;20830;-78
2023/10/13 13:07:46;;;;;;;5.57;4.00;;;;;;;25.33;37.33;95210.63;5095243;28;20440;-78
2023/10/13 13:10:14;;;;;;;11.23;4.30;;;;;;;25.32;36.80;95203.59;5093190;28;20490;-78
2023/10/13 13:12:41;;;;;;;6.77;3.70;;;;;;;25.36;37.71;95213.91;5095261;28;20474;-78
2023/10/13 13:15:11;;;;;;;6.67;4.30;;;;;;;25.32;37.30;95203.59;5095343;28;20439;-78
2023/10/13 13:17:39;;;;;;;6.90;3.80;;;;;;;25.32;37.34;95200.91;5093350;28;20915;-78
2023/10/13 13:20:25;;;;;;;4.77;4.00;;;;;;;25.33;36.67;95199.88;5095808;28;21128;-78
2023/10/13 13:22:53;;;;;;;10.90;3.87;;;;;;;25.38;37.25;95206.47;5095013;28;20443;-78
2023/10/13 13:25:25;;;;;;;9.73;4.50;;;;;;;25.33;37.56;95216.00;5094384;28;20927;-79
2023/10/13 13:27:52;;;;;;;9.60;4.43;;;;;;;25.32;36.98;95208.97;5095057;28;20447;-78
2023/10/13 13:30:22;;;;;;;8.53;4.03;;;;;;;25.29;36.41;95208.56;5094222;28;20476;-78
2023/10/13 13:32:50;;;;;;;6.03;4.10;;;;;;;25.32;36.75;95203.59;5094889;28;20842;-79
2023/10/13 13:35:18;;;;;;;15.57;4.63;;;;;;;25.34;37.00;95206.06;5094271;28;20464;-77
2023/10/13 13:37:45;;;;;;;10.20;4.33;;;;;;;25.33;36.55;95207.09;5067089;28;20439;-79